createdAt,value
2022-11-10T00:01:09.819Z,12.60
2022-11-10T00:03:40.308Z,12.40
2022-11-10T00:06:10.980Z,12.50
2022-11-10T00:08:39.144Z,12.20
2022-11-10T00:11:08.221Z,12.10
2022-11-10T00:13:57.648Z,12.10
2022-11-10T00:16:44.985Z,11.80
2022-11-10T00:19:13.241Z,11.80
2022-11-10T00:21:41.617Z,11.70
2022-11-10T00:24:10.274Z,11.60
2022-11-10T00:26:38.644Z,11.80
2022-11-10T00:29:07.009Z,11.80
2022-11-10T00:31:38.778Z,11.70
2022-11-10T00:34:08.126Z,11.60
2022-11-10T00:36:36.390Z,11.60
2022-11-10T00:39:05.021Z,11.60
2022-11-10T00:41:33.209Z,11.80
2022-11-10T00:44:01.922Z,11.80
2022-11-10T00:46:30.334Z,12.00
2022-11-10T00:48:59.848Z,11.80
2022-11-10T00:51:29.168Z,11.70
2022-11-10T00:53:57.597Z,11.80
2022-11-10T00:56:26.389Z,11.70
2022-11-10T00:58:54.523Z,11.70
2022-11-10T01:01:25.716Z,11.70
2022-11-10T01:03:54.676Z,11.60
2022-11-10T01:06:24.621Z,11.60
2022-11-10T01:08:52.800Z,11.60
2022-11-10T01:11:22.971Z,11.50
2022-11-10T01:13:53.228Z,11.40
2022-11-10T01:16:26.622Z,11.30
2022-11-10T01:19:00.101Z,11.30
2022-11-10T01:21:30.911Z,11.30
2022-11-10T01:23:59.418Z,11.40
2022-11-10T01:26:27.809Z,11.40
2022-11-10T01:28:56.204Z,11.60
2022-11-10T01:31:24.491Z,11.60
2022-11-10T01:33:52.921Z,11.70
2022-11-10T01:36:21.181Z,12.10
2022-11-10T01:38:50.853Z,12.30
2022-11-10T01:41:20.809Z,12.00
2022-11-10T01:43:49.203Z,11.80
2022-11-10T01:46:17.574Z,11.90
2022-11-10T01:48:59.575Z,11.80
2022-11-10T01:51:36.113Z,11.70
2022-11-10T01:54:10.628Z,11.80
2022-11-10T01:56:43.471Z,11.80
2022-11-10T01:59:15.290Z,11.60
2022-11-10T02:01:43.721Z,12.20
2022-11-10T02:04:16.648Z,12.20
2022-11-10T02:06:47.965Z,12.00
2022-11-10T02:09:21.110Z,12.50
2022-11-10T02:11:52.796Z,12.40
2022-11-10T02:14:24.143Z,12.40
2022-11-10T02:16:52.468Z,12.20
2022-11-10T02:19:22.921Z,12.30
2022-11-10T02:21:52.463Z,12.30
2022-11-10T02:24:24.840Z,12.10
2022-11-10T02:26:55.860Z,12.10
2022-11-10T02:29:25.212Z,12.00
2022-11-10T02:31:53.639Z,11.90
2022-11-10T02:34:22.501Z,11.80
2022-11-10T02:36:52.010Z,12.20
2022-11-10T02:39:24.973Z,12.30
2022-11-10T02:41:55.149Z,12.20
2022-11-10T02:44:23.482Z,12.00
2022-11-10T02:46:55.133Z,12.00
2022-11-10T02:49:23.479Z,11.90
2022-11-10T02:51:53.101Z,11.70
2022-11-10T02:54:21.547Z,11.90
2022-11-10T02:56:53.030Z,11.80
2022-11-10T02:59:21.505Z,11.80
2022-11-10T03:01:49.914Z,11.80
2022-11-10T03:04:18.142Z,12.00
2022-11-10T03:06:46.500Z,12.00
2022-11-10T03:09:16.260Z,11.90
2022-11-10T03:11:44.537Z,12.10
2022-11-10T03:14:13.364Z,11.90
2022-11-10T03:16:41.660Z,11.90
2022-11-10T03:19:10.136Z,11.80
2022-11-10T03:21:43.950Z,11.70
2022-11-10T03:24:12.318Z,11.80
2022-11-10T03:26:41.895Z,11.60
2022-11-10T03:29:10.541Z,11.70
2022-11-10T03:31:41.117Z,11.70
2022-11-10T03:34:09.488Z,11.50
2022-11-10T03:36:37.983Z,11.60
2022-11-10T03:39:06.380Z,11.50
2022-11-10T03:41:40.552Z,11.50
2022-11-10T03:44:10.204Z,11.40
2022-11-10T03:46:43.493Z,11.30
2022-11-10T03:49:15.486Z,11.30
2022-11-10T03:51:43.776Z,11.20
2022-11-10T03:54:15.100Z,11.20
2022-11-10T03:56:43.284Z,11.20
2022-11-10T03:59:12.834Z,11.10
2022-11-10T04:01:44.112Z,11.20
2022-11-10T04:04:33.563Z,11.20
2022-11-10T04:07:19.309Z,11.40
2022-11-10T04:09:48.896Z,11.70
2022-11-10T04:12:34.376Z,12.20
2022-11-10T04:15:21.706Z,12.30
2022-11-10T04:17:53.121Z,12.20
2022-11-10T04:20:23.658Z,12.50
2022-11-10T04:23:09.700Z,12.20
2022-11-10T04:25:57.991Z,12.30
2022-11-10T04:28:26.242Z,12.70
2022-11-10T04:30:55.688Z,12.50
2022-11-10T04:33:26.653Z,12.20
2022-11-10T04:35:54.863Z,12.50
2022-11-10T04:38:25.845Z,12.30
2022-11-10T04:40:54.350Z,12.50
2022-11-10T04:43:23.189Z,12.70
2022-11-10T04:45:54.933Z,12.30
2022-11-10T04:48:24.863Z,12.60
2022-11-10T04:50:56.496Z,12.50
2022-11-10T04:53:25.539Z,12.50
2022-11-10T04:55:57.221Z,12.20
2022-11-10T04:58:31.886Z,12.20
2022-11-10T05:01:00.184Z,12.60
2022-11-10T05:03:29.729Z,12.80
2022-11-10T05:06:00.904Z,12.70
2022-11-10T05:08:29.300Z,12.60
2022-11-10T05:10:57.540Z,12.40
2022-11-10T05:13:26.399Z,12.40
2022-11-10T05:15:54.658Z,12.40
2022-11-10T05:18:23.094Z,12.90
2022-11-10T05:20:53.408Z,12.30
2022-11-10T05:23:40.273Z,12.30
2022-11-10T05:26:10.190Z,12.00
2022-11-10T05:28:38.608Z,12.30
2022-11-10T05:31:07.163Z,12.50
2022-11-10T05:33:36.136Z,12.60
2022-11-10T05:36:07.056Z,12.50
2022-11-10T05:38:39.065Z,12.60
2022-11-10T05:41:10.246Z,12.80
2022-11-10T05:43:38.665Z,12.40
2022-11-10T05:46:07.024Z,12.20
2022-11-10T05:48:35.229Z,12.20
2022-11-10T05:51:03.636Z,12.50
2022-11-10T05:53:33.843Z,12.70
2022-11-10T05:56:02.226Z,12.60
2022-11-10T05:58:30.766Z,12.60
2022-11-10T06:00:59.242Z,12.60
2022-11-10T06:03:28.817Z,12.50
2022-11-10T06:05:57.146Z,12.80
2022-11-10T06:08:25.663Z,12.50
2022-11-10T06:10:55.467Z,12.50
2022-11-10T06:13:24.217Z,12.80
2022-11-10T06:15:52.613Z,13.60
2022-11-10T06:18:20.784Z,13.40
2022-11-10T06:20:49.212Z,14.70
2022-11-10T06:23:17.378Z,13.60
2022-11-10T06:25:45.954Z,13.10
2022-11-10T06:28:16.146Z,13.20
2022-11-10T06:30:44.596Z,13.10
2022-11-10T06:33:13.166Z,13.80
2022-11-10T06:35:43.470Z,13.70
2022-11-10T06:38:12.743Z,13.40
2022-11-10T06:40:41.095Z,13.10
2022-11-10T06:43:09.491Z,13.20
2022-11-10T06:45:39.158Z,13.60
2022-11-10T06:48:09.353Z,13.60
2022-11-10T06:50:37.741Z,13.90
2022-11-10T06:53:06.191Z,13.60
2022-11-10T06:55:34.443Z,13.90
2022-11-10T06:58:02.736Z,14.00
2022-11-10T07:00:31.315Z,14.00
2022-11-10T07:03:05.488Z,14.30
2022-11-10T07:05:35.436Z,14.20
2022-11-10T07:08:04.744Z,13.90
2022-11-10T07:10:33.370Z,13.60
2022-11-10T07:13:03.332Z,13.70
2022-11-10T07:15:31.870Z,13.80
2022-11-10T07:18:00.263Z,13.60
2022-11-10T07:20:30.106Z,13.60
2022-11-10T07:23:00.264Z,14.00
2022-11-10T07:25:29.106Z,13.80
2022-11-10T07:27:57.381Z,14.20
2022-11-10T07:30:28.298Z,14.40
2022-11-10T07:33:01.134Z,14.00
2022-11-10T07:35:31.376Z,13.90
2022-11-10T07:38:06.987Z,14.20
2022-11-10T07:40:35.760Z,14.50
2022-11-10T07:43:04.392Z,14.70
2022-11-10T07:45:33.227Z,14.50
2022-11-10T07:48:02.025Z,14.20
2022-11-10T07:50:31.862Z,13.50
2022-11-10T07:53:08.667Z,13.80
2022-11-10T07:55:39.111Z,14.30
2022-11-10T07:58:07.998Z,13.80
2022-11-10T08:00:37.388Z,13.50
2022-11-10T08:03:07.168Z,13.90
2022-11-10T08:05:36.658Z,14.60
2022-11-10T08:08:05.380Z,15.10
2022-11-10T08:10:36.075Z,15.20
2022-11-10T08:13:06.821Z,14.90
2022-11-10T08:15:35.767Z,15.00
2022-11-10T08:18:06.605Z,15.70
2022-11-10T08:20:36.497Z,16.30
2022-11-10T08:23:06.552Z,15.90
2022-11-10T08:25:36.038Z,16.30
2022-11-10T08:28:05.959Z,16.60
2022-11-10T08:30:35.893Z,16.10
2022-11-10T08:33:06.585Z,15.60
2022-11-10T08:35:40.113Z,16.10
2022-11-10T08:38:10.095Z,16.20
2022-11-10T08:40:38.675Z,15.60
2022-11-10T08:43:08.445Z,15.90
2022-11-10T08:45:37.523Z,16.20
2022-11-10T08:48:07.057Z,15.60
2022-11-10T08:50:36.947Z,16.00
2022-11-10T08:53:06.890Z,16.60
2022-11-10T08:55:35.466Z,17.00
2022-11-10T08:58:05.209Z,17.00
2022-11-10T09:00:34.391Z,17.50
2022-11-10T09:03:07.632Z,17.60
2022-11-10T09:05:37.683Z,17.70
2022-11-10T09:08:06.290Z,17.80
2022-11-10T09:10:35.739Z,17.80
2022-11-10T09:13:05.250Z,17.80
2022-11-10T09:15:34.423Z,17.90
2022-11-10T09:18:04.135Z,18.00
2022-11-10T09:20:33.598Z,18.10
2022-11-10T09:23:08.166Z,18.10
2022-11-10T09:25:36.586Z,18.00
2022-11-10T09:28:07.465Z,18.10
2022-11-10T09:30:35.765Z,18.20
2022-11-10T09:33:04.191Z,18.10
2022-11-10T09:35:32.649Z,18.20
2022-11-10T09:38:01.067Z,18.50
2022-11-10T09:40:41.155Z,18.40
2022-11-10T09:43:14.961Z,18.50
2022-11-10T09:45:46.331Z,18.50
2022-11-10T09:48:19.708Z,18.50
2022-11-10T09:50:51.646Z,18.60
2022-11-10T09:53:24.422Z,18.40
2022-11-10T09:55:59.435Z,18.50
2022-11-10T09:58:34.749Z,18.40
2022-11-10T10:01:16.399Z,18.60
2022-11-10T10:03:53.614Z,18.50
2022-11-10T10:06:22.948Z,18.50
2022-11-10T10:09:01.208Z,18.30
2022-11-10T10:11:43.341Z,18.30
2022-11-10T10:14:25.374Z,18.60
2022-11-10T10:17:01.665Z,18.50
2022-11-10T10:19:38.558Z,18.20
2022-11-10T10:22:27.319Z,18.50
2022-11-10T10:25:00.275Z,18.60
2022-11-10T10:27:30.675Z,18.70
2022-11-10T10:29:59.101Z,18.70
2022-11-10T10:32:28.207Z,18.40
2022-11-10T10:34:57.577Z,18.70
2022-11-10T10:37:29.008Z,19.00
2022-11-10T10:39:57.449Z,18.90
2022-11-10T10:42:32.392Z,19.00
2022-11-10T10:45:18.935Z,19.00
2022-11-10T10:47:48.080Z,19.20
2022-11-10T10:50:30.877Z,19.20
2022-11-10T10:53:15.773Z,19.10
2022-11-10T10:55:49.490Z,19.30
2022-11-10T10:58:25.037Z,19.30
2022-11-10T11:00:57.352Z,19.20
2022-11-10T11:03:29.244Z,19.30
2022-11-10T11:06:07.126Z,19.30
2022-11-10T11:08:35.588Z,19.30
2022-11-10T11:11:10.580Z,19.10
2022-11-10T11:13:40.588Z,19.40
2022-11-10T11:16:12.582Z,19.30
2022-11-10T11:18:41.599Z,19.20
2022-11-10T11:21:16.815Z,19.20
2022-11-10T11:23:57.775Z,19.10
2022-11-10T11:26:35.420Z,19.00
2022-11-10T11:29:17.583Z,19.00
2022-11-10T11:31:55.776Z,19.20
2022-11-10T11:34:29.902Z,19.20
2022-11-10T11:37:09.855Z,19.10
2022-11-10T11:39:49.553Z,19.30
2022-11-10T11:42:27.348Z,19.30
2022-11-10T11:45:07.961Z,19.40
2022-11-10T11:47:48.692Z,19.50
2022-11-10T11:50:25.638Z,19.30
2022-11-10T11:53:03.800Z,19.40
2022-11-10T11:55:55.204Z,19.30
2022-11-10T11:58:37.364Z,19.30
2022-11-10T12:01:23.536Z,19.30
2022-11-10T12:04:22.888Z,19.30
2022-11-10T12:07:02.736Z,19.40
2022-11-10T12:09:41.040Z,19.10
2022-11-10T12:12:25.971Z,19.20
2022-11-10T12:14:59.755Z,19.20
2022-11-10T12:17:41.062Z,19.10
2022-11-10T12:20:25.786Z,19.00
2022-11-10T12:23:03.043Z,19.00
2022-11-10T12:25:35.192Z,18.70
2022-11-10T12:28:14.037Z,18.60
2022-11-10T12:30:44.036Z,18.80
2022-11-10T12:33:21.851Z,18.90
2022-11-10T12:35:52.793Z,18.70
2022-11-10T12:38:25.971Z,18.70
2022-11-10T12:41:02.366Z,18.40
2022-11-10T12:43:36.926Z,18.70
2022-11-10T12:46:10.713Z,18.90
2022-11-10T12:48:47.369Z,18.60
2022-11-10T12:51:21.765Z,18.90
2022-11-10T12:53:50.806Z,18.70
2022-11-10T12:56:23.078Z,18.70
2022-11-10T12:59:15.791Z,18.60
2022-11-10T13:01:45.405Z,18.70
2022-11-10T13:04:17.824Z,19.00
2022-11-10T13:06:49.774Z,18.60
2022-11-10T13:09:26.006Z,18.70
2022-11-10T13:12:16.797Z,18.80
2022-11-10T13:14:46.393Z,19.00
2022-11-10T13:17:51.763Z,19.10
2022-11-10T13:20:53.377Z,18.90
2022-11-10T13:23:26.233Z,18.90
2022-11-10T13:25:57.882Z,19.10
2022-11-10T13:28:59.772Z,19.20
2022-11-10T13:31:54.972Z,18.80
2022-11-10T13:34:34.324Z,18.90
2022-11-10T13:37:05.314Z,19.10
2022-11-10T13:39:34.600Z,18.90
2022-11-10T13:42:19.695Z,19.00
2022-11-10T13:44:48.181Z,19.10
2022-11-10T13:47:51.295Z,19.10
2022-11-10T13:50:31.853Z,19.30
2022-11-10T13:53:18.361Z,19.20
2022-11-10T13:56:01.901Z,18.90
2022-11-10T13:58:32.154Z,18.70
2022-11-10T14:01:23.545Z,18.90
2022-11-10T14:04:09.718Z,19.20
2022-11-10T14:06:45.431Z,19.00
2022-11-10T14:09:27.028Z,19.00
2022-11-10T14:12:01.536Z,19.00
2022-11-10T14:14:36.475Z,19.40
2022-11-10T14:17:05.872Z,19.30
2022-11-10T14:19:40.204Z,19.30
2022-11-10T14:22:22.076Z,19.20
2022-11-10T14:24:59.089Z,18.90
2022-11-10T14:27:29.200Z,18.80
2022-11-10T14:30:10.908Z,18.80
2022-11-10T14:32:39.577Z,19.00
2022-11-10T14:35:18.618Z,19.00
2022-11-10T14:37:47.117Z,19.00
2022-11-10T14:40:20.253Z,19.20
2022-11-10T14:42:48.659Z,18.90
2022-11-10T14:45:18.843Z,19.00
2022-11-10T14:47:54.102Z,18.90
2022-11-10T14:50:24.409Z,18.90
2022-11-10T14:52:56.370Z,18.90
2022-11-10T14:55:30.141Z,18.70
2022-11-10T14:58:03.992Z,18.90
2022-11-10T15:00:36.782Z,19.10
2022-11-10T15:03:07.287Z,18.80
2022-11-10T15:05:35.969Z,18.80
2022-11-10T15:08:06.061Z,18.60
2022-11-10T15:10:50.645Z,18.50
2022-11-10T15:13:35.994Z,18.50
2022-11-10T15:16:23.090Z,18.40
2022-11-10T15:18:51.409Z,18.10
2022-11-10T15:21:21.197Z,18.10
2022-11-10T15:23:55.698Z,18.00
2022-11-10T15:26:27.431Z,17.80
2022-11-10T15:28:56.106Z,18.20
2022-11-10T15:31:26.448Z,17.90
2022-11-10T15:33:57.859Z,17.80
2022-11-10T15:36:32.155Z,17.50
2022-11-10T15:39:15.456Z,17.90
2022-11-10T15:41:47.285Z,17.60
2022-11-10T15:44:20.967Z,17.20
2022-11-10T15:46:52.718Z,17.80
2022-11-10T15:49:24.372Z,17.40
2022-11-10T15:51:53.462Z,17.50
2022-11-10T15:54:25.190Z,17.30
2022-11-10T15:56:54.843Z,17.80
2022-11-10T15:59:23.064Z,17.50
2022-11-10T16:01:51.638Z,17.10
2022-11-10T16:04:20.462Z,16.60
2022-11-10T16:06:48.890Z,16.40
2022-11-10T16:09:17.216Z,16.30
2022-11-10T16:11:46.699Z,16.60
2022-11-10T16:14:18.018Z,16.10
2022-11-10T16:16:46.666Z,16.20
2022-11-10T16:19:15.093Z,16.10
2022-11-10T16:21:43.282Z,15.90
2022-11-10T16:24:11.646Z,15.70
2022-11-10T16:26:39.847Z,15.60
2022-11-10T16:29:13.719Z,15.50
2022-11-10T16:31:43.184Z,15.50
2022-11-10T16:34:14.767Z,15.40
2022-11-10T16:36:46.057Z,15.40
2022-11-10T16:39:16.211Z,15.30
2022-11-10T16:41:44.708Z,14.60
2022-11-10T16:44:13.777Z,14.10
2022-11-10T16:46:44.570Z,13.80
2022-11-10T16:49:25.840Z,13.80
2022-11-10T16:51:54.268Z,13.70
2022-11-10T16:54:22.552Z,13.70
2022-11-10T16:56:50.744Z,13.80
2022-11-10T16:59:19.072Z,13.70
2022-11-10T17:01:49.867Z,13.70
2022-11-10T17:04:18.237Z,13.70
2022-11-10T17:06:46.529Z,13.60
2022-11-10T17:09:18.854Z,13.60
2022-11-10T17:11:47.203Z,13.60
2022-11-10T17:14:16.533Z,13.50
2022-11-10T17:16:46.491Z,13.90
2022-11-10T17:19:24.177Z,14.40
2022-11-10T17:21:53.934Z,14.50
2022-11-10T17:24:22.501Z,14.50
2022-11-10T17:26:51.056Z,14.50
2022-11-10T17:29:21.036Z,14.30
2022-11-10T17:31:50.249Z,14.40
2022-11-10T17:34:19.706Z,14.30
2022-11-10T17:36:49.889Z,14.10
2022-11-10T17:39:18.816Z,14.00
2022-11-10T17:41:47.003Z,13.90
2022-11-10T17:44:16.187Z,13.80
2022-11-10T17:46:44.617Z,13.70
2022-11-10T17:49:12.813Z,13.80
2022-11-10T17:51:44.634Z,13.90
2022-11-10T17:54:14.870Z,13.80
2022-11-10T17:56:43.534Z,13.80
2022-11-10T17:59:12.021Z,13.80
2022-11-10T18:01:40.384Z,13.80
2022-11-10T18:04:12.692Z,13.70
2022-11-10T18:06:42.409Z,13.70
2022-11-10T18:09:10.633Z,13.80
2022-11-10T18:11:38.923Z,14.30
2022-11-10T18:14:07.165Z,14.50
2022-11-10T18:16:35.760Z,15.30
2022-11-10T18:19:04.296Z,15.50
2022-11-10T18:21:32.744Z,15.50
2022-11-10T18:24:02.493Z,15.40
2022-11-10T18:26:30.744Z,15.00
2022-11-10T18:28:58.879Z,14.90
2022-11-10T18:31:27.931Z,15.00
2022-11-10T18:33:56.494Z,14.60
2022-11-10T18:36:24.819Z,14.80
2022-11-10T18:38:53.272Z,14.80
2022-11-10T18:41:40.400Z,14.70
2022-11-10T18:44:08.924Z,15.10
2022-11-10T18:46:37.386Z,14.70
2022-11-10T18:49:05.788Z,14.80
2022-11-10T18:51:34.114Z,14.50
2022-11-10T18:54:02.655Z,14.50
2022-11-10T18:56:32.318Z,14.80
2022-11-10T18:59:00.600Z,14.80
2022-11-10T19:01:28.904Z,14.90
2022-11-10T19:03:57.229Z,15.60
2022-11-10T19:06:25.645Z,15.20
2022-11-10T19:08:54.058Z,15.70
2022-11-10T19:11:22.719Z,16.20
2022-11-10T19:13:52.683Z,16.00
2022-11-10T19:16:21.516Z,15.60
2022-11-10T19:18:49.647Z,15.30
2022-11-10T19:21:20.511Z,15.80
2022-11-10T19:23:49.005Z,16.20
2022-11-10T19:26:22.586Z,16.10
2022-11-10T19:28:55.408Z,16.80
2022-11-10T19:31:24.797Z,16.80
2022-11-10T19:33:56.247Z,17.10
2022-11-10T19:36:26.071Z,15.90
2022-11-10T19:38:55.433Z,16.20
2022-11-10T19:41:25.937Z,16.00
2022-11-10T19:43:56.072Z,15.60
2022-11-10T19:46:25.516Z,16.50
2022-11-10T19:48:54.388Z,16.80
2022-11-10T19:51:23.222Z,16.40
2022-11-10T19:53:58.858Z,16.90
2022-11-10T19:56:31.467Z,17.30
2022-11-10T19:59:01.649Z,16.20
2022-11-10T20:01:32.161Z,16.60
2022-11-10T20:04:01.422Z,16.30
2022-11-10T20:06:29.676Z,15.70
2022-11-10T20:08:57.930Z,15.50
2022-11-10T20:11:27.281Z,16.20
2022-11-10T20:13:57.387Z,15.70
2022-11-10T20:16:27.164Z,16.00
2022-11-10T20:18:55.469Z,16.60
2022-11-10T20:21:24.414Z,16.40
2022-11-10T20:23:56.535Z,16.20
2022-11-10T20:26:25.507Z,16.50
2022-11-10T20:28:54.063Z,16.10
2022-11-10T20:31:24.397Z,16.10
2022-11-10T20:33:55.357Z,15.70
2022-11-10T20:36:25.990Z,15.30
2022-11-10T20:38:55.200Z,16.20
2022-11-10T20:41:26.478Z,16.10
2022-11-10T20:43:55.231Z,16.20
2022-11-10T20:49:13.670Z,15.90
2022-11-10T20:51:42.533Z,15.60
2022-11-10T20:54:11.011Z,15.80
2022-11-10T20:56:39.351Z,15.90
2022-11-10T20:59:07.811Z,15.80
2022-11-10T21:01:37.633Z,15.20
2022-11-10T21:04:07.012Z,15.60
2022-11-10T21:06:36.654Z,16.10
2022-11-10T21:09:06.813Z,15.10
2022-11-10T21:11:52.527Z,15.30
2022-11-10T21:14:21.360Z,15.50
2022-11-10T21:16:49.662Z,15.10
2022-11-10T21:19:18.044Z,15.20
2022-11-10T21:21:47.469Z,15.10
2022-11-10T21:24:15.696Z,15.60
2022-11-10T21:26:44.109Z,16.10
2022-11-10T21:29:12.613Z,15.60
2022-11-10T21:31:40.898Z,16.10
2022-11-10T21:34:09.296Z,15.70
2022-11-10T21:36:37.646Z,16.10
2022-11-10T21:39:07.596Z,15.40
2022-11-10T21:41:35.988Z,15.50
2022-11-10T21:44:04.238Z,15.20
2022-11-10T21:46:32.519Z,14.90
2022-11-10T21:49:06.112Z,14.70
2022-11-10T21:51:35.865Z,14.90
2022-11-10T21:54:04.340Z,14.90
2022-11-10T21:56:33.972Z,14.50
2022-11-10T21:59:02.368Z,14.70
2022-11-10T22:01:30.887Z,14.30
2022-11-10T22:03:59.148Z,14.70
2022-11-10T22:06:47.769Z,15.60
2022-11-10T22:09:36.794Z,15.10
2022-11-10T22:12:24.270Z,15.00
2022-11-10T22:15:10.255Z,15.60
2022-11-10T22:17:55.743Z,15.50
2022-11-10T22:20:23.855Z,15.00
2022-11-10T22:22:52.219Z,15.10
2022-11-10T22:25:20.456Z,15.40
2022-11-10T22:27:49.999Z,15.00
2022-11-10T22:30:18.314Z,14.30
2022-11-10T22:32:46.957Z,14.00
2022-11-10T22:35:35.306Z,14.70
2022-11-10T22:38:07.114Z,14.50
2022-11-10T22:40:54.119Z,14.80
2022-11-10T22:43:41.342Z,14.80
2022-11-10T22:46:09.659Z,14.70
2022-11-10T22:48:37.951Z,14.70
2022-11-10T22:51:06.400Z,14.70
2022-11-10T22:53:38.322Z,14.30
2022-11-10T22:56:06.882Z,15.30
2022-11-10T22:58:36.666Z,14.90
2022-11-10T23:01:06.236Z,15.10
2022-11-10T23:03:35.133Z,15.00
2022-11-10T23:06:03.532Z,15.20
2022-11-10T23:08:32.261Z,15.30
2022-11-10T23:11:01.598Z,15.10
2022-11-10T23:13:30.430Z,14.80
2022-11-10T23:16:03.958Z,14.30
2022-11-10T23:18:32.577Z,14.30
2022-11-10T23:21:02.352Z,13.80
2022-11-10T23:23:32.963Z,13.80
2022-11-10T23:26:02.883Z,13.70
2022-11-10T23:28:32.331Z,13.90
2022-11-10T23:31:06.114Z,14.30
2022-11-10T23:33:35.140Z,14.50
2022-11-10T23:36:04.135Z,14.10
2022-11-10T23:38:32.986Z,14.60
2022-11-10T23:41:02.149Z,14.30
2022-11-10T23:43:30.663Z,14.00
2022-11-10T23:46:07.658Z,14.00
2022-11-10T23:48:38.289Z,14.20
2022-11-10T23:51:07.441Z,14.00
2022-11-10T23:53:36.090Z,14.30
2022-11-10T23:56:06.854Z,14.20
2022-11-10T23:58:35.095Z,14.80
